Time;durP1;ratioP1;P1;durP2;ratioP2;P2;SDS_P1;SDS_P2;PMS_P1;PMS_P2;Temp;Humidity;BMP_temperature;BMP_pressure;BME280_temperature;BME280_humidity;BME280_pressure;Samples;Min_cycle;Max_cycle;Signal;HPM_P1;HPM_P2
2022/08/04 00:04:14;;;;;;;4.65;2.03;;;26.00;99.20;;;;;;4995091;28;20204;-77
2022/08/04 00:06:53;;;;;;;4.13;1.95;;;26.00;99.10;;;;;;5004314;28;20224;-76
2022/08/04 00:09:35;;;;;;;4.18;1.90;;;26.00;99.70;;;;;;5027179;28;20191;-77
2022/08/04 00:12:07;;;;;;;6.88;2.05;;;25.90;99.50;;;;;;5010420;28;20196;-77
2022/08/04 00:14:41;;;;;;;6.57;2.10;;;25.80;99.90;;;;;;5014022;28;20199;-77
2022/08/04 00:17:09;;;;;;;5.45;2.17;;;25.80;99.90;;;;;;5010477;28;20219;-77
2022/08/04 00:19:41;;;;;;;6.50;1.98;;;25.70;99.90;;;;;;5013432;28;20532;-77
2022/08/04 00:22:23;;;;;;;7.55;2.95;;;25.50;99.90;;;;;;5013537;28;20200;-77
2022/08/04 00:24:50;;;;;;;6.55;2.35;;;25.40;99.90;;;;;;5013146;28;20199;-77
2022/08/04 00:27:21;;;;;;;4.13;2.08;;;25.50;99.90;;;;;;5024400;28;20210;-77
2022/08/04 00:29:51;;;;;;;4.47;2.08;;;25.50;99.90;;;;;;5012368;28;20214;-77
2022/08/04 00:32:18;;;;;;;6.05;2.47;;;25.50;99.90;;;;;;5008834;28;20195;-77
2022/08/04 00:34:47;;;;;;;5.65;2.20;;;25.50;99.90;;;;;;5010388;28;20218;-77
2022/08/04 00:37:15;;;;;;;8.07;3.05;;;25.40;99.90;;;;;;5011254;28;20646;-77
2022/08/04 00:39:44;;;;;;;7.32;4.30;;;25.40;99.90;;;;;;5029244;28;20677;-77
2022/08/04 00:42:28;;;;;;;8.45;4.25;;;25.50;99.90;;;;;;5010798;28;20208;-77
2022/08/04 00:45:17;;;;;;;7.85;3.88;;;25.50;99.90;;;;;;5013636;28;20191;-77
2022/08/04 00:48:01;;;;;;;6.00;3.00;;;25.40;99.90;;;;;;5008674;28;20204;-77
2022/08/04 00:50:39;;;;;;;7.53;2.97;;;25.50;99.90;;;;;;5011603;28;20388;-76
2022/08/04 00:53:10;;;;;;;4.13;2.28;;;25.60;99.90;;;;;;5005889;28;20210;-76
2022/08/04 00:55:53;;;;;;;3.97;2.25;;;25.70;99.90;;;;;;5012680;28;20220;-76
2022/08/04 00:58:31;;;;;;;4.22;1.90;;;25.80;99.90;;;;;;5000849;28;20685;-76
2022/08/04 01:01:02;;;;;;;5.53;2.55;;;25.80;99.90;;;;;;5001223;28;20207;-76
2022/08/04 01:03:49;;;;;;;6.55;2.08;;;25.70;99.90;;;;;;5008747;28;20203;-76
2022/08/04 01:06:27;;;;;;;6.30;2.40;;;25.80;99.90;;;;;;5012443;28;20226;-76
2022/08/04 01:09:04;;;;;;;9.93;2.40;;;25.90;99.80;;;;;;5006544;28;20678;-76
2022/08/04 01:11:44;;;;;;;7.65;2.55;;;25.80;99.60;;;;;;5009166;28;20692;-76
2022/08/04 01:14:28;;;;;;;4.45;2.03;;;25.90;99.00;;;;;;5005939;28;20219;-76
2022/08/04 01:17:04;;;;;;;6.63;2.28;;;25.90;98.40;;;;;;5007224;28;20224;-76
2022/08/04 01:20:05;;;;;;;4.45;2.45;;;25.90;98.50;;;;;;5025095;28;20199;-77
2022/08/04 01:23:01;;;;;;;5.25;2.50;;;26.00;98.30;;;;;;5010438;28;20203;-77
2022/08/04 01:25:47;;;;;;;4.97;2.08;;;26.00;98.30;;;;;;5010072;28;20227;-77
2022/08/04 01:28:29;;;;;;;4.65;2.05;;;25.90;98.40;;;;;;5009377;28;20191;-77
2022/08/04 01:31:07;;;;;;;4.85;2.10;;;25.90;98.40;;;;;;5011301;28;20195;-77
2022/08/04 01:33:37;;;;;;;5.22;2.58;;;25.90;98.50;;;;;;5007757;28;20211;-77
2022/08/04 01:36:06;;;;;;;5.63;2.30;;;25.90;98.60;;;;;;5010446;28;20600;-77
2022/08/04 01:38:35;;;;;;;4.85;2.05;;;25.90;98.60;;;;;;5008756;28;20211;-77
2022/08/04 01:41:05;;;;;;;5.88;2.25;;;25.90;98.60;;;;;;5006042;28;20207;-77
2022/08/04 01:43:34;;;;;;;6.63;2.50;;;25.80;99.00;;;;;;5012024;28;20199;-77
2022/08/04 01:46:05;;;;;;;4.32;2.25;;;25.60;99.90;;;;;;5004314;28;20250;-77
2022/08/04 01:48:34;;;;;;;5.13;2.20;;;25.60;99.90;;;;;;5010095;28;20210;-77
2022/08/04 01:51:04;;;;;;;5.05;2.03;;;25.50;99.90;;;;;;5012823;28;20195;-77
2022/08/04 01:53:35;;;;;;;4.93;2.47;;;25.40;99.90;;;;;;5006142;28;20209;-77
2022/08/04 01:56:04;;;;;;;4.57;2.45;;;25.40;99.90;;;;;;5005572;28;20223;-77
2022/08/04 01:58:33;;;;;;;9.07;2.45;;;25.40;99.90;;;;;;5009919;28;20200;-77
2022/08/04 02:01:04;;;;;;;7.10;3.03;;;25.30;99.90;;;;;;5009799;28;20200;-77
2022/08/04 02:03:33;;;;;;;7.45;2.60;;;25.40;99.90;;;;;;5009153;28;20673;-77
2022/08/04 02:06:23;;;;;;;6.78;2.45;;;25.30;99.90;;;;;;5011219;28;20226;-77
2022/08/04 02:08:57;;;;;;;4.50;2.60;;;25.30;99.90;;;;;;5009313;28;20200;-77
2022/08/04 02:11:25;;;;;;;5.32;2.50;;;25.20;99.90;;;;;;5002274;28;20199;-77
2022/08/04 02:14:03;;;;;;;6.55;3.00;;;25.20;99.90;;;;;;5011134;28;20230;-77
2022/08/04 02:16:43;;;;;;;7.00;2.53;;;25.10;99.90;;;;;;5009259;28;20219;-77
2022/08/04 02:19:18;;;;;;;7.22;2.90;;;25.10;99.90;;;;;;5009833;28;20570;-77
2022/08/04 02:21:51;;;;;;;10.80;2.50;;;25.10;99.90;;;;;;5009016;28;20669;-77
2022/08/04 02:24:25;;;;;;;6.68;2.83;;;25.20;99.90;;;;;;5009715;28;20202;-77
2022/08/04 02:26:56;;;;;;;5.78;2.85;;;25.20;99.90;;;;;;5023712;28;20230;-77
2022/08/04 02:29:34;;;;;;;7.97;2.78;;;25.10;99.90;;;;;;5008064;28;20191;-77
2022/08/04 02:32:05;;;;;;;8.15;2.92;;;25.20;99.90;;;;;;5002463;28;20569;-77
2022/08/04 02:34:41;;;;;;;8.48;2.70;;;25.20;99.90;;;;;;5009391;28;20218;-76
2022/08/04 02:37:10;;;;;;;6.47;2.50;;;25.30;99.90;;;;;;5001478;28;20227;-76
2022/08/04 02:39:38;;;;;;;6.82;2.28;;;25.30;99.90;;;;;;5005576;28;20585;-76
2022/08/04 02:42:06;;;;;;;5.78;2.28;;;25.30;99.90;;;;;;5001836;28;20203;-76
2022/08/04 02:44:37;;;;;;;9.57;2.70;;;25.30;99.90;;;;;;5002774;28;20211;-76
2022/08/04 02:47:07;;;;;;;4.95;2.38;;;25.30;99.90;;;;;;5009574;28;20215;-76
2022/08/04 02:49:40;;;;;;;5.85;2.92;;;25.30;99.90;;;;;;5011343;28;20204;-76
2022/08/04 02:52:11;;;;;;;5.75;2.42;;;25.40;99.90;;;;;;5005113;28;20207;-76
2022/08/04 02:54:41;;;;;;;5.95;2.60;;;25.40;99.90;;;;;;5009374;28;20231;-76
2022/08/04 02:57:11;;;;;;;6.25;2.58;;;25.40;99.90;;;;;;5007631;28;20215;-77
2022/08/04 02:59:54;;;;;;;4.50;2.53;;;25.40;99.90;;;;;;5007461;28;20195;-77
2022/08/04 03:02:30;;;;;;;4.03;2.55;;;25.40;99.90;;;;;;5008266;28;20195;-77
2022/08/04 03:05:03;;;;;;;4.43;2.63;;;25.30;99.90;;;;;;5010080;28;20560;-77
2022/08/04 03:08:19;;;;;;;6.30;2.85;;;25.30;99.90;;;;;;5003773;28;20206;-77
2022/08/04 03:11:26;;;;;;;6.07;2.90;;;25.30;99.90;;;;;;5008822;28;20846;-77
2022/08/04 03:14:33;;;;;;;5.60;2.33;;;25.20;99.90;;;;;;5007841;28;20216;-77
2022/08/04 03:17:31;;;;;;;4.30;2.63;;;25.10;99.90;;;;;;4999154;28;20223;-77
2022/08/04 03:20:46;;;;;;;4.57;2.63;;;25.20;99.90;;;;;;5005736;28;20193;-77
2022/08/04 03:23:48;;;;;;;3.45;2.38;;;25.10;99.90;;;;;;4991904;28;20685;-77
2022/08/04 03:26:44;;;;;;;5.43;2.88;;;24.90;99.90;;;;;;5025011;28;20576;-77
2022/08/04 03:29:42;;;;;;;5.97;2.92;;;24.70;99.90;;;;;;4964521;28;20200;-77
2022/08/04 03:32:31;;;;;;;5.95;2.80;;;24.70;99.90;;;;;;5007560;28;20670;-77
2022/08/04 03:35:31;;;;;;;4.65;2.58;;;24.60;99.90;;;;;;5015302;28;20207;-77
2022/08/04 03:38:24;;;;;;;5.85;2.63;;;24.60;99.90;;;;;;5022919;28;20204;-77
2022/08/04 03:41:15;;;;;;;4.30;2.50;;;24.70;99.90;;;;;;5008595;28;20274;-77
2022/08/04 03:44:26;;;;;;;3.55;2.78;;;24.80;99.90;;;;;;5007187;28;20211;-77
2022/08/04 03:47:32;;;;;;;5.45;2.50;;;24.70;99.90;;;;;;4956484;28;20692;-76
2022/08/04 03:53:53;;;;;;;7.13;2.70;;;24.60;99.90;;;;;;5002132;28;20224;-76
2022/08/04 03:56:43;;;;;;;7.32;2.95;;;24.10;99.90;;;;;;5008750;28;20215;-76
2022/08/04 03:59:53;;;;;;;7.90;3.20;;;24.00;99.90;;;;;;5006142;28;20218;-77
2022/08/04 04:03:00;;;;;;;6.97;2.72;;;23.80;99.90;;;;;;4997105;28;20208;-77
2022/08/04 04:05:47;;;;;;;5.63;3.20;;;23.80;99.90;;;;;;5007255;28;20223;-77
2022/08/04 04:08:51;;;;;;;7.15;2.97;;;23.50;99.90;;;;;;5008097;28;20210;-77
2022/08/04 04:11:42;;;;;;;3.55;2.97;;;23.20;99.90;;;;;;4977441;28;20210;-77
2022/08/04 04:14:42;;;;;;;9.20;3.40;;;23.10;99.90;;;;;;5005447;28;20207;-77
2022/08/04 04:17:41;;;;;;;5.50;3.35;;;22.80;99.90;;;;;;5003186;28;20215;-77
2022/08/04 04:20:54;;;;;;;9.73;2.80;;;22.60;99.90;;;;;;4984188;28;20204;-77
2022/08/04 04:23:32;;;;;;;6.40;3.03;;;22.80;99.90;;;;;;4981185;28;20200;-77
2022/08/04 04:26:17;;;;;;;4.95;2.88;;;22.90;99.90;;;;;;5010508;28;20212;-77
2022/08/04 04:29:02;;;;;;;7.70;2.60;;;23.10;99.90;;;;;;5011686;28;20203;-76
2022/08/04 04:31:53;;;;;;;5.60;2.75;;;23.30;99.90;;;;;;5013920;28;20207;-76
2022/08/04 04:34:35;;;;;;;5.20;2.88;;;23.10;99.90;;;;;;5012456;28;20223;-76
2022/08/04 04:37:19;;;;;;;5.13;2.42;;;23.10;99.90;;;;;;5010080;28;20711;-76
2022/08/04 04:40:03;;;;;;;4.15;2.42;;;23.00;99.90;;;;;;5013317;28;20203;-76
2022/08/04 04:43:00;;;;;;;5.97;2.72;;;23.10;99.90;;;;;;5013105;28;20199;-76
2022/08/04 04:45:34;;;;;;;6.43;3.00;;;23.10;99.90;;;;;;5012720;28;20211;-76
2022/08/04 04:48:09;;;;;;;6.30;3.50;;;23.20;99.90;;;;;;5009392;28;20202;-76
2022/08/04 04:50:47;;;;;;;9.65;3.47;;;23.20;99.90;;;;;;5007435;28;20214;-77
2022/08/04 04:53:23;;;;;;;7.78;3.20;;;23.10;99.90;;;;;;5013644;28;20215;-77
2022/08/04 04:56:03;;;;;;;6.00;2.90;;;22.80;99.90;;;;;;5008483;28;20725;-77
2022/08/04 04:58:33;;;;;;;5.55;3.10;;;23.10;99.90;;;;;;5009382;28;20665;-77
2022/08/04 05:01:23;;;;;;;4.50;3.00;;;23.30;99.90;;;;;;5010530;28;20537;-76
2022/08/04 05:04:23;;;;;;;5.88;3.50;;;23.20;99.90;;;;;;5007397;28;20578;-76
2022/08/04 05:07:18;;;;;;;4.07;3.08;;;23.00;99.90;;;;;;5011479;28;20224;-77
2022/08/04 05:10:01;;;;;;;4.40;3.03;;;23.30;99.90;;;;;;5009335;28;20203;-79
2022/08/04 05:12:52;;;;;;;5.05;3.30;;;23.30;99.90;;;;;;5006493;28;20215;-79
2022/08/04 05:15:24;;;;;;;8.43;3.70;;;23.30;99.90;;;;;;5021045;28;20246;-80
2022/08/04 05:18:00;;;;;;;4.93;2.97;;;23.40;99.90;;;;;;5009761;28;20208;-80
2022/08/04 05:20:34;;;;;;;5.90;3.30;;;23.40;99.90;;;;;;5011697;28;20199;-80
2022/08/04 05:23:08;;;;;;;4.45;2.90;;;23.50;99.90;;;;;;5007242;28;20201;-79
2022/08/04 05:25:40;;;;;;;5.97;3.13;;;23.60;99.90;;;;;;5010957;28;20564;-79
2022/08/04 05:28:22;;;;;;;5.47;3.05;;;23.80;99.90;;;;;;5006153;28;20204;-80
2022/08/04 05:30:54;;;;;;;6.65;3.30;;;23.90;99.90;;;;;;5011326;28;20203;-80
2022/08/04 05:33:26;;;;;;;7.97;3.33;;;23.90;99.90;;;;;;5011291;28;20192;-80
2022/08/04 05:35:58;;;;;;;5.50;3.13;;;24.10;99.90;;;;;;5026334;28;20231;-80
2022/08/04 05:38:31;;;;;;;4.53;3.00;;;24.20;99.90;;;;;;5011400;28;20199;-80
2022/08/04 05:41:02;;;;;;;5.45;3.13;;;24.20;99.90;;;;;;4993314;28;20212;-80
2022/08/04 05:43:31;;;;;;;7.50;3.17;;;24.40;99.90;;;;;;4997918;28;20224;-80
2022/08/04 05:46:00;;;;;;;6.18;3.40;;;24.50;99.90;;;;;;5004364;28;20238;-80
2022/08/04 05:48:29;;;;;;;6.40;2.92;;;24.50;99.90;;;;;;5010280;28;20207;-79
2022/08/04 05:50:58;;;;;;;4.40;2.90;;;24.50;99.90;;;;;;5010490;28;20215;-79
2022/08/04 05:53:32;;;;;;;6.00;3.22;;;24.50;99.90;;;;;;5011388;28;20207;-80
2022/08/04 05:56:03;;;;;;;6.72;3.53;;;24.70;99.90;;;;;;5008982;28;20235;-80
2022/08/04 05:58:32;;;;;;;5.68;3.20;;;24.70;99.90;;;;;;5001656;28;20208;-80
2022/08/04 06:01:02;;;;;;;3.70;2.80;;;24.70;99.90;;;;;;5002102;28;20550;-80
2022/08/04 06:03:31;;;;;;;4.95;3.10;;;24.90;99.90;;;;;;5007845;28;20214;-80
2022/08/04 06:06:13;;;;;;;3.95;2.92;;;25.10;99.90;;;;;;5007088;28;20207;-80
2022/08/04 06:08:51;;;;;;;6.18;3.30;;;25.40;99.90;;;;;;4999466;28;20219;-80
2022/08/04 06:11:38;;;;;;;7.65;3.13;;;25.50;99.90;;;;;;5010343;28;20203;-80
2022/08/04 06:14:47;;;;;;;4.90;2.63;;;25.60;99.90;;;;;;5010246;28;20226;-80
2022/08/04 06:17:36;;;;;;;4.97;2.80;;;25.70;99.90;;;;;;5017802;28;20206;-80
2022/08/04 06:20:15;;;;;;;4.28;3.33;;;25.90;99.90;;;;;;5034266;28;20202;-79
2022/08/04 06:22:54;;;;;;;3.88;2.83;;;25.90;99.90;;;;;;5024260;28;20203;-80
2022/08/04 06:25:38;;;;;;;5.13;2.70;;;25.60;99.90;;;;;;5025011;28;20231;-80
2022/08/04 06:28:12;;;;;;;5.18;2.50;;;25.80;99.90;;;;;;5021401;28;20204;-80
2022/08/04 06:30:54;;;;;;;3.97;2.88;;;26.00;99.90;;;;;;5027006;28;20207;-81
2022/08/04 06:33:33;;;;;;;4.35;3.20;;;26.20;99.90;;;;;;5023342;28;20190;-80
2022/08/04 06:36:13;;;;;;;4.38;2.90;;;26.20;99.70;;;;;;5024626;28;20223;-80
2022/08/04 06:38:51;;;;;;;4.35;3.00;;;26.20;97.60;;;;;;5021879;28;20649;-80
2022/08/04 06:41:28;;;;;;;3.17;2.65;;;26.10;97.10;;;;;;5027169;28;20194;-80
2022/08/04 06:44:13;;;;;;;5.05;3.00;;;26.00;96.70;;;;;;5041722;28;20211;-80
2022/08/04 06:47:01;;;;;;;3.58;3.13;;;26.30;96.80;;;;;;5025941;28;20227;-80
2022/08/04 06:49:36;;;;;;;5.25;2.72;;;26.30;95.50;;;;;;5026955;28;20203;-81
2022/08/04 06:52:16;;;;;;;4.10;2.75;;;26.40;96.10;;;;;;5022015;28;20707;-80
2022/08/04 06:54:52;;;;;;;4.05;3.00;;;26.40;94.90;;;;;;5016276;28;20657;-80
2022/08/04 06:57:36;;;;;;;4.68;2.78;;;26.60;95.40;;;;;;5024900;28;20203;-80
2022/08/04 07:00:17;;;;;;;7.57;3.17;;;26.70;94.70;;;;;;5028573;28;20703;-80
2022/08/04 07:02:57;;;;;;;5.22;3.38;;;26.80;94.70;;;;;;5011004;28;20199;-80
2022/08/04 07:05:38;;;;;;;3.95;2.92;;;26.90;94.80;;;;;;5006109;28;20266;-80
2022/08/04 07:08:19;;;;;;;5.70;3.20;;;27.00;94.60;;;;;;5011220;28;20195;-80
2022/08/04 07:11:00;;;;;;;4.40;2.72;;;27.20;94.70;;;;;;5011237;28;20196;-80
2022/08/04 07:16:57;;;;;;;6.80;3.20;;;27.40;93.40;;;;;;5007974;28;20310;-80
2022/08/04 07:19:36;;;;;;;5.60;2.83;;;27.40;93.30;;;;;;5019146;28;20212;-79
2022/08/04 07:22:13;;;;;;;4.13;3.30;;;27.40;92.50;;;;;;5008221;28;20206;-80
2022/08/04 07:24:47;;;;;;;4.65;3.00;;;27.40;92.20;;;;;;5010305;28;20718;-80
2022/08/04 07:27:20;;;;;;;6.22;3.08;;;27.40;92.20;;;;;;5004809;28;20195;-80
2022/08/04 07:29:52;;;;;;;4.85;3.15;;;27.40;92.70;;;;;;5009000;28;20286;-79
2022/08/04 07:32:24;;;;;;;3.58;3.08;;;27.40;92.40;;;;;;5025520;28;20204;-80
2022/08/04 07:35:07;;;;;;;4.85;3.33;;;27.50;91.80;;;;;;5009391;28;20691;-80
2022/08/04 07:37:36;;;;;;;4.05;3.17;;;27.70;91.60;;;;;;5007464;28;20203;-80
2022/08/04 07:40:09;;;;;;;3.70;3.28;;;27.90;92.30;;;;;;5004924;28;20216;-80
2022/08/04 07:42:44;;;;;;;3.40;2.90;;;27.90;91.50;;;;;;5010791;28;20210;-79
2022/08/04 07:45:12;;;;;;;3.33;3.03;;;28.10;91.80;;;;;;5006403;28;20226;-82
2022/08/04 07:47:52;;;;;;;4.90;2.40;;;28.20;90.70;;;;;;5011098;28;20195;-84
2022/08/04 07:50:29;;;;;;;3.35;3.03;;;28.20;90.60;;;;;;5023066;28;20207;-82
2022/08/04 07:53:00;;;;;;;3.72;3.20;;;28.20;90.00;;;;;;5009754;28;22038;-82
2022/08/04 07:55:51;;;;;;;2.97;2.78;;;28.20;89.70;;;;;;5002682;28;20231;-83
2022/08/04 07:58:26;;;;;;;5.13;3.20;;;28.30;90.30;;;;;;5004071;28;20204;-82
2022/08/04 08:01:00;;;;;;;3.60;2.75;;;28.40;89.20;;;;;;5007343;28;20196;-82
2022/08/04 08:03:38;;;;;;;3.65;3.03;;;28.60;88.70;;;;;;5011472;28;20660;-82
2022/08/04 08:06:22;;;;;;;4.20;3.10;;;28.60;88.10;;;;;;5010176;28;20223;-82
2022/08/04 08:08:53;;;;;;;3.65;2.97;;;28.50;88.30;;;;;;5029219;28;20219;-82
2022/08/04 08:11:28;;;;;;;4.40;3.05;;;28.50;88.20;;;;;;5023191;28;20218;-82
2022/08/04 08:14:01;;;;;;;5.50;2.95;;;28.60;87.90;;;;;;5007212;28;20206;-82
2022/08/04 08:16:45;;;;;;;3.80;2.67;;;28.60;88.00;;;;;;5006830;28;20222;-84
2022/08/04 08:19:23;;;;;;;3.30;2.72;;;28.60;87.80;;;;;;5012350;28;20223;-83
2022/08/04 08:21:54;;;;;;;4.50;2.75;;;28.70;87.70;;;;;;5013962;28;20226;-83
2022/08/04 08:24:33;;;;;;;3.45;3.00;;;28.70;87.30;;;;;;5015116;28;20211;-83
2022/08/04 08:27:16;;;;;;;4.38;3.20;;;28.80;86.90;;;;;;5009555;28;20222;-84
2022/08/04 08:30:09;;;;;;;3.25;2.88;;;29.00;88.40;;;;;;5015142;28;20206;-83
2022/08/04 08:32:51;;;;;;;3.38;2.90;;;29.10;85.80;;;;;;5012311;28;20676;-84
2022/08/04 08:35:31;;;;;;;4.93;3.03;;;29.10;85.20;;;;;;5006688;28;20227;-84
2022/08/04 08:38:27;;;;;;;3.67;2.92;;;29.20;85.50;;;;;;5012292;28;20203;-83
2022/08/04 08:41:26;;;;;;;3.65;2.95;;;29.40;84.10;;;;;;5015455;28;20211;-83
2022/08/04 08:44:30;;;;;;;3.00;2.80;;;29.30;84.20;;;;;;5029957;28;20203;-83
2022/08/04 08:47:22;;;;;;;5.32;2.70;;;29.50;84.10;;;;;;4981649;28;20215;-83
2022/08/04 08:50:13;;;;;;;4.68;2.80;;;29.50;83.10;;;;;;5014274;28;20275;-84
2022/08/04 08:53:02;;;;;;;2.58;2.38;;;29.80;82.00;;;;;;5012209;28;20203;-84
2022/08/04 08:55:51;;;;;;;3.70;2.20;;;29.90;80.20;;;;;;5011250;28;20231;-83
2022/08/04 08:58:47;;;;;;;3.38;2.47;;;29.90;78.90;;;;;;5027223;28;20211;-83
2022/08/04 09:01:39;;;;;;;4.20;2.53;;;30.00;78.00;;;;;;5026626;28;20211;-83
2022/08/04 09:04:52;;;;;;;3.00;2.42;;;30.00;78.10;;;;;;5009312;28;20196;-83
2022/08/04 09:08:02;;;;;;;7.45;2.78;;;30.10;77.10;;;;;;4998036;28;20191;-83
2022/08/04 09:10:41;;;;;;;3.28;2.72;;;30.30;76.10;;;;;;4991741;28;20214;-83
2022/08/04 09:13:23;;;;;;;5.40;2.45;;;30.40;75.60;;;;;;5007348;28;20200;-83
2022/08/04 09:16:17;;;;;;;7.18;2.47;;;30.60;75.60;;;;;;5024801;28;20711;-83
2022/08/04 09:19:10;;;;;;;3.42;2.13;;;30.30;73.20;;;;;;5013706;28;20665;-83
2022/08/04 09:21:51;;;;;;;5.68;2.30;;;30.40;72.90;;;;;;5014019;28;20199;-83
2022/08/04 09:24:29;;;;;;;3.67;2.20;;;30.40;71.90;;;;;;5006411;28;20196;-83
2022/08/04 09:27:14;;;;;;;5.63;2.78;;;30.30;72.20;;;;;;5028518;28;20243;-83
2022/08/04 09:29:59;;;;;;;4.20;2.38;;;30.40;73.30;;;;;;5025529;28;20215;-83
2022/08/04 09:32:46;;;;;;;3.10;2.55;;;30.50;71.20;;;;;;5014522;28;20214;-84
2022/08/04 09:35:24;;;;;;;3.60;2.20;;;30.70;72.30;;;;;;5030355;28;20231;-84
2022/08/04 09:38:11;;;;;;;2.60;2.40;;;30.70;69.50;;;;;;5014001;28;20216;-84
2022/08/04 09:40:58;;;;;;;2.97;2.45;;;30.90;69.30;;;;;;5014676;28;20654;-84
2022/08/04 09:43:54;;;;;;;2.30;2.00;;;31.10;69.60;;;;;;5010760;28;20207;-84
2022/08/04 09:46:29;;;;;;;6.35;2.53;;;31.20;67.90;;;;;;5005962;28;20216;-85
2022/08/04 09:49:07;;;;;;;3.42;1.90;;;31.30;66.90;;;;;;5025966;28;20195;-82
2022/08/04 09:51:52;;;;;;;2.85;2.00;;;31.40;64.30;;;;;;5011848;28;20661;-82
2022/08/04 09:54:39;;;;;;;2.25;2.00;;;31.50;64.50;;;;;;5027651;28;20712;-82
2022/08/04 09:57:16;;;;;;;3.80;1.92;;;31.50;63.20;;;;;;5021647;28;20242;-81
2022/08/04 10:00:02;;;;;;;2.20;2.00;;;31.70;62.50;;;;;;5011927;28;20203;-81
2022/08/04 10:02:47;;;;;;;2.10;1.90;;;31.60;62.00;;;;;;5018626;28;20200;-82
2022/08/04 10:05:22;;;;;;;2.85;1.80;;;31.60;62.10;;;;;;5010801;28;20223;-82
2022/08/04 10:08:20;;;;;;;3.35;2.13;;;31.80;61.40;;;;;;5012741;28;20196;-82
2022/08/04 10:10:59;;;;;;;5.43;1.95;;;31.70;60.90;;;;;;5010196;28;20204;-82
2022/08/04 10:13:44;;;;;;;1.90;1.75;;;31.90;60.20;;;;;;5001612;28;20548;-81
2022/08/04 10:16:39;;;;;;;3.10;1.92;;;32.00;59.50;;;;;;5012365;28;20235;-81
2022/08/04 10:20:03;;;;;;;2.63;1.88;;;31.80;59.20;;;;;;5014430;28;20196;-82
2022/08/04 10:22:39;;;;;;;2.75;1.60;;;31.60;58.10;;;;;;5012529;28;20199;-82
2022/08/04 10:25:44;;;;;;;3.20;2.03;;;31.60;57.90;;;;;;5011541;28;20223;-81
2022/08/04 10:28:21;;;;;;;6.10;2.25;;;31.70;58.10;;;;;;5023555;28;20191;-82
2022/08/04 10:31:16;;;;;;;2.78;2.00;;;31.60;58.10;;;;;;5014273;28;20653;-85
2022/08/04 10:33:55;;;;;;;3.05;1.83;;;31.50;59.20;;;;;;5011118;28;20686;-83
2022/08/04 10:36:42;;;;;;;2.92;1.90;;;31.60;59.40;;;;;;5022380;28;20220;-83
2022/08/04 10:39:24;;;;;;;2.42;2.00;;;31.70;57.60;;;;;;5022595;28;20226;-82
2022/08/04 10:42:18;;;;;;;4.00;2.17;;;31.50;57.70;;;;;;5010442;28;20693;-82
2022/08/04 10:45:11;;;;;;;3.65;2.30;;;31.50;57.50;;;;;;5022831;28;20548;-82
2022/08/04 10:47:52;;;;;;;2.70;2.13;;;31.70;56.70;;;;;;5007115;28;20202;-82
2022/08/04 10:50:30;;;;;;;6.45;2.92;;;31.60;57.50;;;;;;5008689;28;20688;-82
2022/08/04 10:53:23;;;;;;;3.05;2.10;;;31.80;57.00;;;;;;5007361;28;20195;-82
2022/08/04 10:56:04;;;;;;;4.15;2.70;;;31.90;57.00;;;;;;5026175;28;20714;-82
2022/08/04 10:58:52;;;;;;;4.85;2.70;;;32.00;56.50;;;;;;5013521;28;20219;-82
2022/08/04 11:01:36;;;;;;;3.45;2.60;;;32.00;55.90;;;;;;5010392;28;20199;-82
2022/08/04 11:04:12;;;;;;;4.20;2.75;;;32.10;55.00;;;;;;5012075;28;20199;-82
2022/08/04 11:06:53;;;;;;;2.65;2.40;;;32.00;56.30;;;;;;5010976;28;20227;-82
2022/08/04 11:09:41;;;;;;;5.43;2.45;;;32.00;57.10;;;;;;5007562;28;20196;-82
2022/08/04 11:12:23;;;;;;;2.70;2.30;;;32.00;57.10;;;;;;5006833;28;20208;-82
2022/08/04 11:15:04;;;;;;;3.17;2.88;;;31.90;55.80;;;;;;5010947;28;20206;-82
2022/08/04 11:17:50;;;;;;;4.70;2.95;;;32.00;56.40;;;;;;5009340;28;20216;-82
2022/08/04 11:20:29;;;;;;;4.22;3.35;;;31.80;57.60;;;;;;5008009;28;20187;-82
2022/08/04 11:23:06;;;;;;;4.82;2.50;;;31.80;59.00;;;;;;5020593;28;20654;-82
2022/08/04 11:25:58;;;;;;;4.95;2.60;;;31.90;57.70;;;;;;5009794;28;20232;-82
2022/08/04 11:28:44;;;;;;;5.13;2.70;;;32.00;58.80;;;;;;5009712;28;20207;-82
2022/08/04 11:31:23;;;;;;;3.50;2.53;;;32.10;58.10;;;;;;5009828;28;20200;-82
2022/08/04 11:34:06;;;;;;;3.35;2.30;;;32.20;57.20;;;;;;5030189;28;20203;-82
2022/08/04 11:36:44;;;;;;;2.83;2.50;;;32.40;56.80;;;;;;5013998;28;20704;-82
2022/08/04 11:39:33;;;;;;;4.57;2.70;;;32.40;56.90;;;;;;5012728;28;20223;-82
2022/08/04 11:42:16;;;;;;;5.65;2.47;;;32.30;57.10;;;;;;5037196;28;20199;-82
2022/08/04 11:44:58;;;;;;;3.67;2.38;;;32.20;56.30;;;;;;5019081;28;20203;-82
2022/08/04 11:47:34;;;;;;;4.35;2.42;;;32.10;56.80;;;;;;5015246;28;20195;-82
2022/08/04 11:50:12;;;;;;;5.13;2.80;;;32.00;56.60;;;;;;5009742;28;20211;-82
2022/08/04 11:52:59;;;;;;;4.20;2.35;;;31.90;57.80;;;;;;5016460;28;20203;-81
2022/08/04 11:55:57;;;;;;;4.22;2.35;;;32.00;58.60;;;;;;5014904;28;20582;-83
2022/08/04 11:58:37;;;;;;;4.80;2.55;;;32.00;59.10;;;;;;5014999;28;20586;-85
2022/08/04 12:01:20;;;;;;;5.30;2.55;;;32.00;56.70;;;;;;5014218;28;20210;-84
2022/08/04 12:04:27;;;;;;;4.15;2.45;;;31.90;58.40;;;;;;5009402;28;20776;-85
2022/08/04 12:07:18;;;;;;;3.15;1.90;;;31.90;59.50;;;;;;5009344;28;20219;-85
2022/08/04 12:10:06;;;;;;;4.22;2.45;;;31.80;58.20;;;;;;5013759;28;20680;-85
2022/08/04 12:13:06;;;;;;;3.90;2.10;;;31.70;57.70;;;;;;5012400;28;20219;-85
2022/08/04 12:15:51;;;;;;;5.70;2.08;;;31.60;58.10;;;;;;5012551;28;20211;-85
2022/08/04 12:18:34;;;;;;;6.63;2.35;;;31.60;58.20;;;;;;5017495;28;20689;-85
2022/08/04 12:21:15;;;;;;;7.18;2.53;;;31.70;59.00;;;;;;5008513;28;20195;-85
2022/08/04 12:23:55;;;;;;;7.55;2.60;;;31.60;60.50;;;;;;5016445;28;20200;-83
2022/08/04 12:26:35;;;;;;;5.47;2.95;;;31.50;61.70;;;;;;5010764;28;20223;-82
2022/08/04 12:29:13;;;;;;;8.90;2.58;;;31.40;63.10;;;;;;5030175;28;20684;-82
2022/08/04 12:31:50;;;;;;;5.50;2.63;;;31.30;64.80;;;;;;5004937;28;20199;-83
2022/08/04 12:34:35;;;;;;;6.00;2.63;;;31.30;66.30;;;;;;5010699;28;20209;-83
2022/08/04 12:37:17;;;;;;;3.75;3.00;;;31.30;68.00;;;;;;5020819;28;20220;-82
2022/08/04 12:40:02;;;;;;;5.00;2.60;;;31.20;67.40;;;;;;5014214;28;20216;-82
2022/08/04 12:42:50;;;;;;;4.05;2.55;;;31.10;68.70;;;;;;5016224;28;20199;-83
2022/08/04 12:45:29;;;;;;;4.45;2.65;;;31.00;68.20;;;;;;5031975;28;20222;-83
2022/08/04 12:48:07;;;;;;;5.63;3.03;;;30.90;68.60;;;;;;5008165;28;20211;-83
2022/08/04 12:50:36;;;;;;;4.43;2.63;;;30.80;68.80;;;;;;5008164;28;20212;-83
2022/08/04 12:53:16;;;;;;;5.03;3.00;;;30.70;69.90;;;;;;5012913;28;20203;-83
2022/08/04 12:55:59;;;;;;;8.93;3.05;;;30.80;71.00;;;;;;5014762;28;20215;-82
2022/08/04 12:58:41;;;;;;;5.20;2.67;;;31.00;70.90;;;;;;5013305;28;20222;-82
2022/08/04 13:01:24;;;;;;;5.40;3.15;;;31.10;72.10;;;;;;5017522;28;20200;-83
2022/08/04 13:04:01;;;;;;;5.82;2.97;;;31.20;73.30;;;;;;5007056;28;20210;-83
2022/08/04 13:06:41;;;;;;;5.18;2.90;;;31.10;72.60;;;;;;5009706;28;20211;-82
2022/08/04 13:09:28;;;;;;;7.85;3.33;;;30.80;74.00;;;;;;5013784;28;20191;-82
2022/08/04 13:12:05;;;;;;;8.00;3.15;;;30.50;75.60;;;;;;5011033;28;20204;-85
2022/08/04 13:14:44;;;;;;;4.55;2.63;;;30.30;76.70;;;;;;5009728;28;20211;-83
2022/08/04 13:17:20;;;;;;;5.85;3.17;;;30.30;77.60;;;;;;5011383;28;20223;-83
2022/08/04 13:19:56;;;;;;;4.28;3.20;;;30.40;78.20;;;;;;5016754;28;20211;-83
2022/08/04 13:22:30;;;;;;;6.38;3.50;;;30.60;77.90;;;;;;5031315;28;20210;-83
2022/08/04 13:25:05;;;;;;;4.88;3.47;;;30.60;78.50;;;;;;5023133;28;20206;-83
2022/08/04 13:27:38;;;;;;;7.03;3.33;;;31.10;79.20;;;;;;5016273;28;20206;-83
2022/08/04 13:30:19;;;;;;;6.72;2.88;;;31.30;77.80;;;;;;5011513;28;20192;-83
2022/08/04 13:32:59;;;;;;;8.85;3.55;;;31.50;77.40;;;;;;5011136;28;20207;-83
2022/08/04 13:35:42;;;;;;;4.72;3.00;;;31.80;77.10;;;;;;5026180;28;20231;-84
2022/08/04 13:38:20;;;;;;;10.13;3.72;;;31.70;77.30;;;;;;5015176;28;20215;-84
2022/08/04 13:41:00;;;;;;;7.35;3.40;;;31.50;77.60;;;;;;5011065;28;20558;-83
2022/08/04 13:43:46;;;;;;;6.35;2.90;;;31.50;78.90;;;;;;5011110;28;20203;-84
2022/08/04 13:46:26;;;;;;;6.97;3.50;;;31.40;80.40;;;;;;5010677;28;20219;-83
2022/08/04 13:48:57;;;;;;;3.88;3.25;;;31.30;79.50;;;;;;5012605;28;20650;-84
2022/08/04 13:51:38;;;;;;;8.60;3.83;;;31.30;79.50;;;;;;5007214;28;20204;-82
2022/08/04 13:54:12;;;;;;;5.88;4.00;;;31.20;80.20;;;;;;5026302;28;20658;-82
2022/08/04 13:56:50;;;;;;;3.85;3.42;;;31.10;81.60;;;;;;5013700;28;20220;-83
2022/08/04 13:59:30;;;;;;;5.53;3.10;;;31.00;81.30;;;;;;5027276;28;20246;-83
2022/08/04 14:02:10;;;;;;;6.70;3.40;;;31.20;81.90;;;;;;5010554;28;20206;-83
2022/08/04 14:04:55;;;;;;;7.20;3.45;;;31.20;80.70;;;;;;5013504;28;20199;-83
2022/08/04 14:07:32;;;;;;;10.52;2.90;;;31.20;80.30;;;;;;5012484;28;20203;-83
2022/08/04 14:10:19;;;;;;;5.25;2.83;;;31.30;78.30;;;;;;5009735;28;20195;-85